createdAt,value
2018-12-31T00:01:07.128Z,4.67
2018-12-31T00:03:33.539Z,5.53
2018-12-31T00:05:59.931Z,5.13
2018-12-31T00:08:26.327Z,4.90
2018-12-31T00:10:52.745Z,9.13
2018-12-31T00:13:19.214Z,4.20
2018-12-31T00:15:45.718Z,5.40
2018-12-31T00:18:12.099Z,4.23
2018-12-31T00:20:38.529Z,4.97
2018-12-31T00:23:04.916Z,4.10
2018-12-31T00:25:31.348Z,4.10
2018-12-31T00:27:57.806Z,4.60
2018-12-31T00:30:24.200Z,7.63
2018-12-31T00:32:50.638Z,4.60
2018-12-31T00:35:17.157Z,3.10
2018-12-31T00:37:43.601Z,5.83
2018-12-31T00:40:10.156Z,3.50
2018-12-31T00:42:36.583Z,3.80
2018-12-31T00:45:03.486Z,3.03
2018-12-31T00:47:29.897Z,4.20
2018-12-31T00:49:56.327Z,3.70
2018-12-31T00:52:22.716Z,7.10
2018-12-31T00:54:49.112Z,7.33
2018-12-31T00:57:15.543Z,5.17
2018-12-31T00:59:41.941Z,8.87
2018-12-31T01:02:08.444Z,19.60
2018-12-31T01:04:34.875Z,64.60
2018-12-31T01:07:01.256Z,35.43
2018-12-31T01:09:27.642Z,11.63
2018-12-31T01:11:54.112Z,6.10
2018-12-31T01:14:20.523Z,8.50
2018-12-31T01:16:46.996Z,5.80
2018-12-31T01:19:13.444Z,5.37
2018-12-31T01:21:39.912Z,4.27
2018-12-31T01:24:06.299Z,5.10
2018-12-31T01:26:32.729Z,4.47
2018-12-31T01:28:59.308Z,5.90
2018-12-31T01:31:25.711Z,4.60
2018-12-31T01:33:52.675Z,4.73
2018-12-31T01:36:19.238Z,3.50
2018-12-31T01:38:45.700Z,5.07
2018-12-31T01:41:12.417Z,6.67
2018-12-31T01:43:38.827Z,5.40
2018-12-31T01:46:06.030Z,4.60
2018-12-31T01:48:32.525Z,5.27
2018-12-31T01:50:58.910Z,3.83
2018-12-31T01:53:25.322Z,3.30
2018-12-31T01:55:51.952Z,5.00
2018-12-31T01:58:18.381Z,4.60
2018-12-31T02:00:44.789Z,3.10
2018-12-31T02:03:11.399Z,4.40
2018-12-31T02:05:37.796Z,3.73
2018-12-31T02:08:04.179Z,4.40
2018-12-31T02:10:30.644Z,5.83
2018-12-31T02:12:57.050Z,3.70
2018-12-31T02:15:23.457Z,3.50
2018-12-31T02:17:49.851Z,4.80
2018-12-31T02:20:16.233Z,4.10
2018-12-31T02:22:42.615Z,3.83
2018-12-31T02:25:09.064Z,4.97
2018-12-31T02:27:35.439Z,3.87
2018-12-31T02:30:01.928Z,7.50
2018-12-31T02:32:28.377Z,6.20
2018-12-31T02:34:55.035Z,5.87
2018-12-31T02:37:21.453Z,7.33
2018-12-31T02:39:49.545Z,6.30
2018-12-31T02:42:15.987Z,4.93
2018-12-31T02:44:42.379Z,5.27
2018-12-31T02:47:08.805Z,4.60
2018-12-31T02:49:35.214Z,4.97
2018-12-31T02:52:01.596Z,4.90
2018-12-31T02:54:28.036Z,4.70
2018-12-31T02:56:54.456Z,5.00
2018-12-31T02:59:20.868Z,5.80
2018-12-31T03:01:47.291Z,5.53
2018-12-31T03:04:13.700Z,4.73
2018-12-31T03:06:40.117Z,5.37
2018-12-31T03:09:06.525Z,5.13
2018-12-31T03:11:32.900Z,5.10
2018-12-31T03:13:59.288Z,4.50
2018-12-31T03:16:25.855Z,4.60
2018-12-31T03:18:52.227Z,5.00
2018-12-31T03:21:18.645Z,5.27
2018-12-31T03:23:45.051Z,5.80
2018-12-31T03:26:11.434Z,6.10
2018-12-31T03:28:37.845Z,6.80
2018-12-31T03:31:04.296Z,5.37
2018-12-31T03:33:30.761Z,4.90
2018-12-31T03:35:57.140Z,5.00
2018-12-31T03:38:23.536Z,5.67
2018-12-31T03:40:49.918Z,5.60
2018-12-31T03:43:16.325Z,5.93
2018-12-31T03:45:42.748Z,5.37
2018-12-31T03:48:09.161Z,4.57
2018-12-31T03:50:35.574Z,5.60
2018-12-31T03:53:02.277Z,6.90
2018-12-31T03:55:28.680Z,5.73
2018-12-31T03:57:55.055Z,6.03
2018-12-31T04:00:21.679Z,5.63
2018-12-31T04:02:48.097Z,7.53
2018-12-31T04:05:14.556Z,6.10
2018-12-31T04:07:40.958Z,5.60
2018-12-31T04:10:07.327Z,5.93
2018-12-31T04:12:33.744Z,6.70
2018-12-31T04:15:00.400Z,5.93
2018-12-31T04:17:26.780Z,6.20
2018-12-31T04:19:53.193Z,8.50
2018-12-31T04:22:19.858Z,13.80
2018-12-31T04:24:46.333Z,14.70
2018-12-31T04:27:12.754Z,9.60
2018-12-31T04:29:39.155Z,7.50
2018-12-31T04:32:05.534Z,8.97
2018-12-31T04:34:31.923Z,7.53
2018-12-31T04:36:58.377Z,6.90
2018-12-31T04:39:24.752Z,8.43
2018-12-31T04:41:51.135Z,8.50
2018-12-31T04:44:17.794Z,8.00
2018-12-31T04:46:44.169Z,9.33
2018-12-31T04:49:10.549Z,8.53
2018-12-31T04:51:37.164Z,8.00
2018-12-31T04:54:03.564Z,8.43
2018-12-31T04:56:29.944Z,9.20
2018-12-31T04:58:56.341Z,8.53
2018-12-31T05:01:22.812Z,8.60
2018-12-31T05:03:49.298Z,10.10
2018-12-31T05:06:16.000Z,9.00
2018-12-31T05:08:42.405Z,9.67
2018-12-31T05:11:08.809Z,9.80
2018-12-31T05:13:35.259Z,10.13
2018-12-31T05:16:01.635Z,9.30
2018-12-31T05:18:28.072Z,10.23
2018-12-31T05:20:54.704Z,9.10
2018-12-31T05:23:21.087Z,9.50
2018-12-31T05:25:47.497Z,10.87
2018-12-31T05:28:13.891Z,10.13
2018-12-31T05:30:40.306Z,11.23
2018-12-31T05:33:06.682Z,11.07
2018-12-31T05:35:33.104Z,10.70
2018-12-31T05:37:59.513Z,11.27
2018-12-31T05:40:25.884Z,10.93
2018-12-31T05:42:52.358Z,11.10
2018-12-31T05:45:18.779Z,10.60
2018-12-31T05:47:45.163Z,10.90
2018-12-31T05:50:11.593Z,10.70
2018-12-31T05:52:37.967Z,10.50
2018-12-31T05:55:04.380Z,11.07
2018-12-31T05:57:30.796Z,9.40
2018-12-31T05:59:57.213Z,9.67
2018-12-31T06:02:23.592Z,10.27
2018-12-31T06:04:50.021Z,10.17
2018-12-31T06:07:16.442Z,10.90
2018-12-31T06:09:42.853Z,11.67
2018-12-31T06:12:09.243Z,10.77
2018-12-31T06:14:35.640Z,11.00
2018-12-31T06:17:02.049Z,10.97
2018-12-31T06:19:28.455Z,10.90
2018-12-31T06:21:54.840Z,11.57
2018-12-31T06:24:21.220Z,9.10
2018-12-31T06:26:47.615Z,9.13
2018-12-31T06:29:14.033Z,10.00
2018-12-31T06:31:40.433Z,11.50
2018-12-31T06:34:06.877Z,8.67
2018-12-31T06:36:33.304Z,8.30
2018-12-31T06:38:59.732Z,10.00
2018-12-31T06:41:26.490Z,9.83
2018-12-31T06:43:53.049Z,8.20
2018-12-31T06:46:19.525Z,10.43
2018-12-31T06:48:45.952Z,9.80
2018-12-31T06:51:12.364Z,9.00
2018-12-31T06:53:38.778Z,8.77
2018-12-31T06:56:05.260Z,10.30
2018-12-31T06:58:31.644Z,9.27
2018-12-31T07:00:58.038Z,8.27
2018-12-31T07:03:24.674Z,8.80
2018-12-31T07:05:51.089Z,9.10
2018-12-31T07:08:17.496Z,10.00
2018-12-31T07:10:43.916Z,9.37
2018-12-31T07:13:10.288Z,9.00
2018-12-31T07:15:36.663Z,8.77
2018-12-31T07:18:03.269Z,9.80
2018-12-31T07:20:29.664Z,8.97
2018-12-31T07:22:56.048Z,10.77
2018-12-31T07:25:22.492Z,10.70
2018-12-31T07:27:48.871Z,10.13
2018-12-31T07:30:15.284Z,11.50
2018-12-31T07:32:42.009Z,9.27
2018-12-31T07:35:08.388Z,9.63
2018-12-31T07:37:34.767Z,10.30
2018-12-31T07:40:01.201Z,8.97
2018-12-31T07:42:27.608Z,9.20
2018-12-31T07:44:53.987Z,8.50
2018-12-31T07:47:20.828Z,8.90
2018-12-31T07:49:47.206Z,8.20
2018-12-31T07:52:13.616Z,7.90
2018-12-31T07:54:40.322Z,7.60
2018-12-31T07:57:06.728Z,8.30
2018-12-31T07:59:33.107Z,8.17
2018-12-31T08:01:59.496Z,8.77
2018-12-31T08:04:25.879Z,9.03
2018-12-31T08:06:52.292Z,8.63
2018-12-31T08:09:18.903Z,7.67
2018-12-31T08:11:45.288Z,8.57
2018-12-31T08:14:11.697Z,7.60
2018-12-31T08:16:38.152Z,8.67
2018-12-31T08:19:04.528Z,7.93
2018-12-31T08:21:30.903Z,7.77
2018-12-31T08:23:57.343Z,9.23
2018-12-31T08:26:23.807Z,8.37
2018-12-31T08:28:50.187Z,8.47
2018-12-31T08:31:16.652Z,8.70
2018-12-31T08:33:43.060Z,8.97
2018-12-31T08:36:09.460Z,9.33
2018-12-31T08:38:35.860Z,12.23
2018-12-31T08:41:02.240Z,8.83
2018-12-31T08:43:28.667Z,9.87
2018-12-31T08:45:58.425Z,8.50
2018-12-31T08:48:24.908Z,8.20
2018-12-31T08:50:51.279Z,8.77
2018-12-31T08:53:18.005Z,9.60
2018-12-31T08:55:44.440Z,8.80
2018-12-31T08:58:10.847Z,8.93
2018-12-31T09:00:37.277Z,8.53
2018-12-31T09:03:03.663Z,7.97
2018-12-31T09:05:30.047Z,10.00
2018-12-31T09:07:56.452Z,9.00
2018-12-31T09:10:22.827Z,8.57
2018-12-31T09:12:49.208Z,12.77
2018-12-31T09:15:15.926Z,7.63
2018-12-31T09:17:42.412Z,8.97
2018-12-31T09:20:08.787Z,9.37
2018-12-31T09:22:35.278Z,9.47
2018-12-31T09:25:01.956Z,7.93
2018-12-31T09:27:28.881Z,7.87
2018-12-31T09:29:55.720Z,7.93
2018-12-31T09:32:22.192Z,7.97
2018-12-31T09:34:48.563Z,8.10
2018-12-31T09:37:15.211Z,8.07
2018-12-31T09:39:41.628Z,9.27
2018-12-31T09:42:08.036Z,12.03
2018-12-31T09:44:34.482Z,10.37
2018-12-31T09:47:00.851Z,11.47
2018-12-31T09:49:27.310Z,12.50
2018-12-31T09:51:53.920Z,14.13
2018-12-31T09:54:20.298Z,11.90
2018-12-31T09:56:46.712Z,12.10
2018-12-31T09:59:13.137Z,15.90
2018-12-31T10:01:39.520Z,14.03
2018-12-31T10:04:05.901Z,13.00
2018-12-31T10:06:32.376Z,11.77
2018-12-31T10:08:58.751Z,11.97
2018-12-31T10:11:25.139Z,10.93
2018-12-31T10:13:51.538Z,12.37
2018-12-31T10:16:17.924Z,13.17
2018-12-31T10:18:44.305Z,11.70
2018-12-31T10:21:11.015Z,15.97
2018-12-31T10:23:37.397Z,11.77
2018-12-31T10:26:03.780Z,14.10
2018-12-31T10:28:30.523Z,10.63
2018-12-31T10:30:56.932Z,12.07
2018-12-31T10:33:23.318Z,12.67
2018-12-31T10:35:49.792Z,14.37
2018-12-31T10:38:16.294Z,12.10
2018-12-31T10:40:42.698Z,11.10
2018-12-31T10:43:09.186Z,12.17
2018-12-31T10:45:35.567Z,12.17
2018-12-31T10:48:01.989Z,9.97
2018-12-31T10:50:28.449Z,9.80
2018-12-31T10:52:54.858Z,11.70
2018-12-31T10:55:21.236Z,10.27
2018-12-31T10:57:47.793Z,10.87
2018-12-31T11:00:14.265Z,11.97
2018-12-31T11:02:40.647Z,9.77
2018-12-31T11:05:07.069Z,9.53
2018-12-31T11:07:33.444Z,9.37
2018-12-31T11:09:59.829Z,8.53
2018-12-31T11:12:26.256Z,10.70
2018-12-31T11:14:52.668Z,9.70
2018-12-31T11:17:19.043Z,8.90
2018-12-31T11:19:45.449Z,8.83
2018-12-31T11:22:11.822Z,10.30
2018-12-31T11:24:38.249Z,18.63
2018-12-31T11:27:04.956Z,21.67
2018-12-31T11:29:31.336Z,16.20
2018-12-31T11:31:57.716Z,13.20
2018-12-31T11:34:24.156Z,9.63
2018-12-31T11:36:50.543Z,35.53
2018-12-31T11:39:16.935Z,12.30
2018-12-31T11:41:43.397Z,10.50
2018-12-31T11:44:09.803Z,9.77
2018-12-31T11:46:36.294Z,11.53
2018-12-31T11:49:02.932Z,8.93
2018-12-31T11:51:29.380Z,9.63
2018-12-31T11:53:55.756Z,8.57
2018-12-31T11:56:22.473Z,8.90
2018-12-31T11:58:48.876Z,9.23
2018-12-31T12:01:15.292Z,9.57
2018-12-31T12:03:41.779Z,10.27
2018-12-31T12:06:08.159Z,8.93
2018-12-31T12:08:34.544Z,9.80
2018-12-31T12:11:00.985Z,9.33
2018-12-31T12:13:27.789Z,9.90
2018-12-31T12:15:54.331Z,10.50
2018-12-31T12:18:21.084Z,9.20
2018-12-31T12:20:47.525Z,9.70
2018-12-31T12:23:14.034Z,8.93
2018-12-31T12:25:40.653Z,9.77
2018-12-31T12:28:07.428Z,8.70
2018-12-31T12:30:33.848Z,9.50
2018-12-31T12:33:00.479Z,9.77
2018-12-31T12:35:26.924Z,8.80
2018-12-31T12:37:56.180Z,8.93
2018-12-31T12:40:24.595Z,9.10
2018-12-31T12:42:52.205Z,6.90
2018-12-31T12:45:19.051Z,8.30
2018-12-31T12:47:46.175Z,7.83
2018-12-31T12:50:12.555Z,8.83
2018-12-31T12:52:38.980Z,8.23
2018-12-31T12:55:05.801Z,7.80
2018-12-31T12:57:32.181Z,8.63
2018-12-31T12:59:58.573Z,8.07
2018-12-31T13:02:25.265Z,7.47
2018-12-31T13:04:51.646Z,8.10
2018-12-31T13:07:18.071Z,8.27
2018-12-31T13:09:44.559Z,8.80
2018-12-31T13:12:10.947Z,10.47
2018-12-31T13:14:37.370Z,9.43
2018-12-31T13:17:03.912Z,7.90
2018-12-31T13:19:30.408Z,10.70
2018-12-31T13:21:56.829Z,8.43
2018-12-31T13:24:23.564Z,8.87
2018-12-31T13:26:50.055Z,9.00
2018-12-31T13:29:16.444Z,8.30
2018-12-31T13:31:42.888Z,7.30
2018-12-31T13:34:09.381Z,7.20
2018-12-31T13:36:35.897Z,6.70
2018-12-31T13:39:05.049Z,6.87
2018-12-31T13:41:31.484Z,7.23
2018-12-31T13:43:57.864Z,7.33
2018-12-31T13:46:24.433Z,7.30
2018-12-31T13:48:50.848Z,7.63
2018-12-31T13:51:17.223Z,7.40
2018-12-31T13:53:43.697Z,8.30
2018-12-31T13:56:10.112Z,8.57
2018-12-31T13:58:36.625Z,7.43
2018-12-31T14:01:03.145Z,8.20
2018-12-31T14:03:29.519Z,6.73
2018-12-31T14:05:55.907Z,5.50
2018-12-31T14:08:22.684Z,6.10
2018-12-31T14:10:49.197Z,6.27
2018-12-31T14:13:15.616Z,6.07
2018-12-31T14:15:42.282Z,7.10
2018-12-31T14:18:08.792Z,5.10
2018-12-31T14:20:35.361Z,5.40
2018-12-31T14:23:02.067Z,5.97
2018-12-31T14:25:28.451Z,4.77
2018-12-31T14:27:54.832Z,5.30
2018-12-31T14:30:21.612Z,5.33
2018-12-31T14:32:48.091Z,5.63
2018-12-31T14:35:14.469Z,6.17
2018-12-31T14:37:40.910Z,6.20
2018-12-31T14:40:07.718Z,8.40
2018-12-31T14:42:34.137Z,6.90
2018-12-31T14:45:00.821Z,5.97
2018-12-31T14:47:27.301Z,7.10
2018-12-31T14:49:56.854Z,7.57
2018-12-31T14:52:23.659Z,10.50
2018-12-31T14:54:50.092Z,12.23
2018-12-31T14:57:16.505Z,9.00
2018-12-31T14:59:43.008Z,10.40
2018-12-31T15:02:09.426Z,11.17
2018-12-31T15:04:35.841Z,11.20
2018-12-31T15:07:02.564Z,14.47
2018-12-31T15:09:29.040Z,15.23
2018-12-31T15:11:55.449Z,21.40
2018-12-31T15:14:22.054Z,19.83
2018-12-31T15:16:48.577Z,14.20
2018-12-31T15:19:14.984Z,17.93
2018-12-31T15:21:41.405Z,28.83
2018-12-31T15:24:08.149Z,24.07
2018-12-31T15:26:34.527Z,21.37
2018-12-31T15:29:00.984Z,14.70
2018-12-31T15:31:27.364Z,20.57
2018-12-31T15:33:53.780Z,70.13
2018-12-31T15:36:20.532Z,64.20
2018-12-31T15:38:47.445Z,82.33
2018-12-31T15:41:13.928Z,45.83
2018-12-31T15:43:40.347Z,146.80
2018-12-31T15:46:06.847Z,58.30
2018-12-31T15:48:33.333Z,27.07
2018-12-31T15:50:59.759Z,24.33
2018-12-31T15:53:26.575Z,25.63
2018-12-31T15:55:53.113Z,25.93
2018-12-31T15:58:19.511Z,43.10
2018-12-31T16:00:45.926Z,40.97
2018-12-31T16:03:12.339Z,35.90
2018-12-31T16:05:38.775Z,46.97
2018-12-31T16:08:05.157Z,34.53
2018-12-31T16:10:31.569Z,101.67
2018-12-31T16:12:58.174Z,29.80
2018-12-31T16:15:24.551Z,44.77
2018-12-31T16:17:50.927Z,28.87
2018-12-31T16:20:17.368Z,41.00
2018-12-31T16:22:43.751Z,47.53
2018-12-31T16:25:10.331Z,38.50
2018-12-31T16:27:36.801Z,34.83
2018-12-31T16:30:03.988Z,37.00
2018-12-31T16:32:30.367Z,40.50
2018-12-31T16:34:56.826Z,38.93
2018-12-31T16:37:23.340Z,54.20
2018-12-31T16:39:50.204Z,40.73
2018-12-31T16:42:16.695Z,29.77
2018-12-31T16:44:43.081Z,38.77
2018-12-31T16:47:09.495Z,55.40
2018-12-31T16:49:36.071Z,246.30
2018-12-31T16:52:02.696Z,99.10
2018-12-31T16:54:29.897Z,51.43
2018-12-31T16:56:56.732Z,40.70
2018-12-31T16:59:23.269Z,43.73
2018-12-31T17:01:49.643Z,40.77
2018-12-31T17:04:16.068Z,43.93
2018-12-31T17:06:42.484Z,39.20
2018-12-31T17:09:09.154Z,40.53
2018-12-31T17:11:35.663Z,41.00
2018-12-31T17:14:02.076Z,42.00
2018-12-31T17:16:28.447Z,35.43
2018-12-31T17:18:54.879Z,41.80
2018-12-31T17:21:21.281Z,42.57
2018-12-31T17:23:47.691Z,41.53
2018-12-31T17:26:14.723Z,36.17
2018-12-31T17:28:41.301Z,37.03
2018-12-31T17:31:07.675Z,39.73
2018-12-31T17:33:34.147Z,39.60
2018-12-31T17:36:00.558Z,42.57
2018-12-31T17:38:27.013Z,43.87
2018-12-31T17:40:53.849Z,50.03
2018-12-31T17:43:20.260Z,48.53
2018-12-31T17:45:46.816Z,48.73
2018-12-31T17:48:13.249Z,48.30
2018-12-31T17:50:39.636Z,45.93
2018-12-31T17:53:06.018Z,54.30
2018-12-31T17:55:32.772Z,78.77
2018-12-31T17:57:59.240Z,77.40
2018-12-31T18:00:25.723Z,55.40
2018-12-31T18:02:52.378Z,63.63
2018-12-31T18:05:18.759Z,62.63
2018-12-31T18:07:45.158Z,71.67
2018-12-31T18:10:11.582Z,55.03
2018-12-31T18:12:38.260Z,59.83
2018-12-31T18:15:04.939Z,59.67
2018-12-31T18:17:31.579Z,58.37
2018-12-31T18:19:58.857Z,60.97
2018-12-31T18:22:25.451Z,71.67
2018-12-31T18:24:51.895Z,75.63
2018-12-31T18:27:18.375Z,74.90
2018-12-31T18:29:44.789Z,78.73
2018-12-31T18:32:11.253Z,65.00
2018-12-31T18:34:37.632Z,79.40
2018-12-31T18:37:04.054Z,76.80
2018-12-31T18:39:30.464Z,76.67
2018-12-31T18:41:57.149Z,70.10
2018-12-31T18:44:23.561Z,62.47
2018-12-31T18:46:50.076Z,63.90
2018-12-31T18:49:16.451Z,110.13
2018-12-31T18:51:42.871Z,69.80
2018-12-31T18:54:09.273Z,74.03
2018-12-31T18:56:35.655Z,75.23
2018-12-31T18:59:02.108Z,54.27
2018-12-31T19:01:28.840Z,54.63
2018-12-31T19:03:55.219Z,68.07
2018-12-31T19:06:21.599Z,131.10
2018-12-31T19:08:47.999Z,82.43
2018-12-31T19:11:14.410Z,74.57
2018-12-31T19:13:40.812Z,90.67
2018-12-31T19:16:07.510Z,116.80
2018-12-31T19:18:33.926Z,92.87
2018-12-31T19:21:00.487Z,69.70
2018-12-31T19:23:26.883Z,72.63
2018-12-31T19:25:53.301Z,76.37
2018-12-31T19:28:20.201Z,69.47
2018-12-31T19:30:46.645Z,58.73
2018-12-31T19:33:13.114Z,85.97
2018-12-31T19:35:39.615Z,52.80
2018-12-31T19:38:06.356Z,50.10
2018-12-31T19:40:32.737Z,49.50
2018-12-31T19:42:59.115Z,60.43
2018-12-31T19:45:25.860Z,49.80
2018-12-31T19:47:52.247Z,50.40
2018-12-31T19:50:18.640Z,53.00
2018-12-31T19:52:45.041Z,53.67
2018-12-31T19:55:11.470Z,54.30
2018-12-31T19:57:37.895Z,56.40
2018-12-31T20:00:06.305Z,53.03
2018-12-31T20:02:32.860Z,60.50
2018-12-31T20:04:59.271Z,57.63
2018-12-31T20:07:25.988Z,49.97
2018-12-31T20:09:52.375Z,47.73
2018-12-31T20:12:18.797Z,210.83
2018-12-31T20:14:45.644Z,374.70
2018-12-31T20:17:12.064Z,221.73
2018-12-31T20:19:38.547Z,165.57
2018-12-31T20:22:04.959Z,149.40
2018-12-31T20:24:31.479Z,176.07
2018-12-31T20:26:57.990Z,95.83
2018-12-31T20:29:24.527Z,87.30
2018-12-31T20:31:51.052Z,209.30
2018-12-31T20:34:17.477Z,334.83
2018-12-31T20:36:44.083Z,253.03
2018-12-31T20:39:30.465Z,79.23
2018-12-31T20:42:16.807Z,151.80
2018-12-31T20:45:03.211Z,85.30
2018-12-31T20:47:49.822Z,87.57
2018-12-31T20:50:36.114Z,84.43
2018-12-31T20:53:22.632Z,269.50
2018-12-31T20:56:08.945Z,56.40
2018-12-31T20:58:55.357Z,60.93
